Time;durP1;ratioP1;P1;durP2;ratioP2;P2;SDS_P1;SDS_P2;PMS_P1;PMS_P2;Temp;Humidity;BMP_temperature;BMP_pressure;BME280_temperature;BME280_humidity;BME280_pressure;Samples;Min_cycle;Max_cycle;Signal;HPM_P1;HPM_P2
2022/03/20 00:01:05;;;;;;;19.33;6.47;;;;;;;18.07;37.21;102836.13;5052420;28;20036;-77
2022/03/20 00:03:31;;;;;;;18.08;7.43;;;;;;;18.01;37.24;102835.44;5052336;28;20068;-77
2022/03/20 00:05:58;;;;;;;21.67;6.28;;;;;;;18.14;36.90;102833.75;5052423;28;20040;-77
2022/03/20 00:08:24;;;;;;;16.08;6.35;;;;;;;18.08;37.10;102833.06;5052399;28;20422;-77
2022/03/20 00:10:53;;;;;;;17.23;6.75;;;;;;;18.13;36.80;102821.84;5052349;28;20048;-77
2022/03/20 00:13:21;;;;;;;19.83;6.55;;;;;;;18.38;36.38;102822.38;5052345;28;20022;-77
2022/03/20 00:15:52;;;;;;;18.50;8.45;;;;;;;18.43;36.28;102811.13;5052284;28;20040;-77
2022/03/20 00:18:20;;;;;;;24.63;7.00;;;;;;;18.47;35.97;102814.94;5034390;28;20025;-77
2022/03/20 00:21:04;;;;;;;24.48;8.52;;;;;;;18.24;35.97;102817.72;5034390;28;20040;-77
2022/03/20 00:23:29;;;;;;;22.23;6.97;;;;;;;18.27;36.03;102806.00;5052232;28;20036;-77
2022/03/20 00:25:56;;;;;;;19.15;7.78;;;;;;;18.37;35.76;102798.59;5052266;28;20033;-77
2022/03/20 00:28:24;;;;;;;19.38;6.60;;;;;;;18.26;35.54;102792.47;5051995;28;20396;-77
2022/03/20 00:30:50;;;;;;;17.38;6.32;;;;;;;18.10;35.65;102794.00;5052192;28;20119;-77
2022/03/20 00:33:16;;;;;;;18.05;5.22;;;;;;;18.12;35.39;102797.25;5052229;28;20033;-77
2022/03/20 00:35:42;;;;;;;15.45;4.82;;;;;;;17.89;35.34;102782.59;5052108;28;20521;-78
2022/03/20 00:38:09;;;;;;;32.85;8.38;;;;;;;18.06;35.06;102793.84;5052193;28;20625;-77
2022/03/20 00:40:36;;;;;;;17.05;5.18;;;;;;;18.12;34.76;102781.47;5054095;28;20025;-77
2022/03/20 00:43:03;;;;;;;15.82;4.85;;;;;;;18.01;34.79;102780.94;5055900;28;20361;-77
2022/03/20 00:45:29;;;;;;;17.17;4.97;;;;;;;17.96;34.45;102783.00;5055895;28;20044;-77
2022/03/20 00:47:55;;;;;;;15.90;5.80;;;;;;;18.19;34.29;102765.25;5055874;28;20029;-78
2022/03/20 00:50:22;;;;;;;19.25;6.07;;;;;;;18.20;33.82;102774.38;5055901;28;20036;-77
2022/03/20 00:52:47;;;;;;;17.25;6.28;;;;;;;18.15;34.01;102780.88;5055852;28;20029;-77
2022/03/20 00:55:14;;;;;;;20.38;6.20;;;;;;;18.04;34.24;102785.00;5037867;28;20075;-77
2022/03/20 00:57:39;;;;;;;17.67;5.85;;;;;;;18.18;33.83;102785.75;5055762;28;20103;-77
2022/03/20 01:00:06;;;;;;;26.42;7.10;;;;;;;18.13;33.99;102783.09;5055651;28;20096;-77
2022/03/20 01:02:42;;;;;;;23.42;6.72;;;;;;;17.95;34.03;102786.91;5055555;28;20024;-77
2022/03/20 01:05:09;;;;;;;21.73;8.40;;;;;;;18.06;34.15;102779.16;5055585;28;20021;-77
2022/03/20 01:07:38;;;;;;;16.17;5.97;;;;;;;18.09;34.19;102761.94;5055541;28;20067;-78
2022/03/20 01:10:05;;;;;;;16.88;6.43;;;;;;;18.02;34.27;102765.16;5055519;28;20025;-77
2022/03/20 01:12:33;;;;;;;31.48;7.80;;;;;;;18.14;34.16;102759.88;5055405;28;20032;-77
2022/03/20 01:15:03;;;;;;;13.18;6.10;;;;;;;18.09;34.13;102754.47;5055452;28;20021;-77
2022/03/20 01:17:29;;;;;;;18.98;5.82;;;;;;;18.10;33.92;102756.09;5055390;28;20025;-77
2022/03/20 01:19:55;;;;;;;26.15;6.45;;;;;;;18.02;34.08;102754.91;5055270;28;20024;-77
2022/03/20 01:22:21;;;;;;;17.73;6.97;;;;;;;17.86;34.32;102748.13;5055277;28;20060;-77
2022/03/20 01:24:46;;;;;;;18.17;6.18;;;;;;;18.16;33.85;102745.72;5055117;28;20036;-77
2022/03/20 01:27:13;;;;;;;16.58;6.43;;;;;;;18.11;33.89;102735.59;5054936;28;20048;-77
2022/03/20 01:29:39;;;;;;;20.58;6.18;;;;;;;17.98;34.26;102733.69;5055160;28;20053;-77
2022/03/20 01:32:05;;;;;;;23.13;6.38;;;;;;;17.90;34.15;102734.47;5055094;28;20041;-78
2022/03/20 01:34:31;;;;;;;23.02;6.40;;;;;;;17.83;34.18;102728.56;5055042;28;20024;-78
2022/03/20 01:36:58;;;;;;;29.27;7.70;;;;;;;17.83;34.01;102729.38;5054959;28;20025;-77
2022/03/20 01:39:23;;;;;;;30.25;7.13;;;;;;;17.92;34.05;102726.69;5054950;28;20441;-80
2022/03/20 01:41:49;;;;;;;24.05;6.38;;;;;;;17.85;34.19;102720.78;5054973;28;20108;-78
2022/03/20 01:44:14;;;;;;;24.75;6.00;;;;;;;17.77;34.48;102718.78;5054868;28;20068;-77
2022/03/20 01:46:40;;;;;;;14.85;6.50;;;;;;;17.86;34.09;102723.22;5054817;28;20100;-78
2022/03/20 01:49:06;;;;;;;24.95;5.72;;;;;;;17.90;34.21;102715.09;5054753;28;20029;-77
2022/03/20 01:54:15;;;;;;;18.58;7.40;;;;;;;18.11;34.09;102718.16;5055027;28;20052;-77
2022/03/20 01:56:46;;;;;;;30.67;6.18;;;;;;;18.10;34.15;102713.78;5054600;28;20028;-77
2022/03/20 01:59:14;;;;;;;33.78;6.20;;;;;;;18.08;34.20;102711.34;5054581;28;20430;-77
2022/03/20 02:01:40;;;;;;;19.63;6.78;;;;;;;18.05;34.22;102720.25;5054560;28;20025;-77
2022/03/20 02:04:06;;;;;;;18.35;5.22;;;;;;;18.02;34.36;102713.41;5054425;28;20048;-78
2022/03/20 02:06:32;;;;;;;19.15;6.38;;;;;;;18.09;34.12;102706.63;5054479;28;20021;-77
2022/03/20 02:08:57;;;;;;;17.65;6.70;;;;;;;18.02;34.23;102699.56;5054413;28;20083;-77
2022/03/20 02:11:26;;;;;;;20.83;5.90;;;;;;;17.97;34.33;102685.88;5054381;28;20031;-77
2022/03/20 02:13:52;;;;;;;23.35;5.75;;;;;;;17.96;34.05;102686.19;5054311;28;20071;-77
2022/03/20 02:16:19;;;;;;;19.30;5.68;;;;;;;17.94;34.08;102694.00;5054293;28;20036;-78
2022/03/20 02:18:46;;;;;;;19.08;5.80;;;;;;;17.95;33.75;102693.66;5054274;28;20091;-77
2022/03/20 02:21:12;;;;;;;16.15;6.15;;;;;;;17.85;34.05;102693.13;5054141;28;20113;-77
2022/03/20 02:23:38;;;;;;;17.17;5.25;;;;;;;17.96;33.85;102700.03;5054034;28;20461;-77
2022/03/20 02:26:03;;;;;;;17.58;4.97;;;;;;;17.91;33.63;102702.91;5054143;28;20033;-77
2022/03/20 02:28:29;;;;;;;23.25;5.90;;;;;;;17.91;33.71;102691.84;5053829;28;20049;-78
2022/03/20 02:30:55;;;;;;;17.13;5.75;;;;;;;17.86;33.62;102690.03;5053975;28;20029;-81
2022/03/20 02:33:23;;;;;;;18.95;6.00;;;;;;;17.89;33.52;102688.59;5036125;28;20036;-77
2022/03/20 02:35:51;;;;;;;20.23;7.03;;;;;;;17.81;33.54;102681.06;5053877;28;20028;-77
2022/03/20 02:38:18;;;;;;;11.73;4.68;;;;;;;17.91;33.20;102681.63;5053807;28;20028;-76
2022/03/20 02:40:45;;;;;;;19.33;6.50;;;;;;;17.84;33.26;102681.25;5053756;28;20017;-77
2022/03/20 02:43:12;;;;;;;15.85;5.70;;;;;;;17.75;33.33;102675.63;5053677;28;20064;-78
2022/03/20 02:45:38;;;;;;;20.23;5.45;;;;;;;17.69;33.37;102668.59;5053705;28;20145;-78
2022/03/20 02:48:04;;;;;;;19.30;5.50;;;;;;;17.83;33.20;102676.00;5053683;28;20079;-80
2022/03/20 02:50:33;;;;;;;26.42;6.40;;;;;;;17.75;33.38;102672.88;5053684;28;20151;-77
2022/03/20 02:53:04;;;;;;;19.33;6.28;;;;;;;17.76;33.44;102684.78;5035703;28;20036;-77
2022/03/20 02:55:37;;;;;;;24.63;6.70;;;;;;;17.71;33.76;102682.13;5053637;28;20391;-77
2022/03/20 02:58:11;;;;;;;33.72;9.15;;;;;;;17.73;34.05;102680.69;5053486;28;20029;-77
2022/03/20 03:00:38;;;;;;;28.33;7.32;;;;;;;17.68;34.31;102678.03;5053469;28;20021;-77
2022/03/20 03:03:08;;;;;;;20.75;5.70;;;;;;;17.72;34.57;102672.69;5053056;28;20020;-77
2022/03/20 03:05:34;;;;;;;17.65;4.80;;;;;;;17.69;34.85;102665.03;5053331;28;20025;-77
2022/03/20 03:10:56;;;;;;;17.70;5.40;;;;;;;17.55;35.21;102650.44;5053227;28;20075;-77
2022/03/20 03:13:42;;;;;;;16.38;6.13;;;;;;;17.58;35.10;102642.31;5053261;28;20036;-78
2022/03/20 03:16:13;;;;;;;12.23;5.95;;;;;;;17.47;35.37;102638.19;5052817;28;20033;-77
2022/03/20 03:18:44;;;;;;;14.65;5.72;;;;;;;17.60;35.11;102647.53;5035228;28;20365;-77
2022/03/20 03:21:12;;;;;;;21.15;5.82;;;;;;;17.60;34.97;102645.59;5053071;28;20021;-77
2022/03/20 03:23:38;;;;;;;18.50;5.25;;;;;;;17.52;35.27;102646.34;5052916;28;20029;-77
2022/03/20 03:26:04;;;;;;;18.20;6.13;;;;;;;17.59;35.26;102640.38;5052954;28;20100;-77
2022/03/20 03:28:36;;;;;;;22.23;6.18;;;;;;;17.67;34.88;102642.38;5052735;28;20102;-77
2022/03/20 03:31:10;;;;;;;18.38;5.75;;;;;;;17.82;34.41;102632.91;5052954;28;20040;-77
2022/03/20 03:36:25;;;;;;;22.15;7.13;;;;;;;17.75;34.27;102623.09;5021518;28;20045;-77
2022/03/20 03:38:51;;;;;;;23.70;6.50;;;;;;;17.75;34.39;102620.34;5034959;28;20048;-77
2022/03/20 03:41:16;;;;;;;14.50;5.25;;;;;;;17.75;34.30;102619.53;5052736;28;20057;-77
2022/03/20 03:43:43;;;;;;;18.00;5.00;;;;;;;17.73;34.22;102622.63;5052661;28;20033;-77
2022/03/20 03:46:09;;;;;;;28.98;5.32;;;;;;;17.74;34.31;102624.25;5052720;28;20395;-76
2022/03/20 03:48:34;;;;;;;26.55;7.00;;;;;;;17.67;34.44;102626.59;5052640;28;20025;-77
2022/03/20 03:51:00;;;;;;;21.65;7.10;;;;;;;17.64;34.35;102621.72;5052626;28;20029;-77
2022/03/20 03:53:25;;;;;;;24.70;6.00;;;;;;;17.66;34.39;102619.44;5052548;28;20462;-78
2022/03/20 03:55:51;;;;;;;19.75;6.10;;;;;;;17.65;34.38;102612.28;5034660;28;20037;-77
2022/03/20 03:58:17;;;;;;;19.27;6.55;;;;;;;17.58;34.59;102614.69;5034669;28;20116;-81
2022/03/20 04:00:43;;;;;;;29.50;6.82;;;;;;;17.59;34.45;102605.25;5034566;28;20379;-77
2022/03/20 04:03:09;;;;;;;17.15;6.13;;;;;;;17.55;34.43;102618.09;5052349;28;20025;-77
2022/03/20 04:05:35;;;;;;;17.55;5.40;;;;;;;17.53;34.63;102619.50;5052445;28;20033;-77
2022/03/20 04:08:01;;;;;;;22.05;6.70;;;;;;;17.58;34.28;102619.41;5034433;28;20029;-77
2022/03/20 04:10:27;;;;;;;27.85;6.47;;;;;;;17.55;34.58;102608.97;5052439;28;20099;-78
2022/03/20 04:12:53;;;;;;;18.88;5.28;;;;;;;17.48;34.30;102606.66;5052404;28;20120;-77
2022/03/20 04:15:24;;;;;;;16.67;5.97;;;;;;;17.48;34.17;102595.59;5054091;28;20074;-77
2022/03/20 04:17:51;;;;;;;17.98;4.70;;;;;;;17.41;34.42;102601.56;5056441;28;20048;-77
2022/03/20 04:20:16;;;;;;;14.75;4.50;;;;;;;17.23;34.66;102604.50;5056459;28;20499;-77
2022/03/20 04:25:29;;;;;;;17.23;5.05;;;;;;;17.28;34.22;102607.16;5035017;28;20063;-77
2022/03/20 04:27:56;;;;;;;16.58;4.03;;;;;;;17.22;34.04;102608.41;5056140;28;20049;-77
2022/03/20 04:30:28;;;;;;;14.70;5.32;;;;;;;17.25;34.18;102607.78;5056273;28;20426;-77
2022/03/20 04:32:58;;;;;;;12.48;3.85;;;;;;;17.22;34.01;102594.59;5056174;28;20044;-77
2022/03/20 04:35:24;;;;;;;13.13;4.22;;;;;;;17.11;34.04;102592.06;5056198;28;20083;-77
2022/03/20 04:37:53;;;;;;;14.95;3.95;;;;;;;17.14;33.80;102585.09;5056139;28;20082;-77
2022/03/20 04:40:20;;;;;;;12.23;4.28;;;;;;;17.09;33.93;102585.25;5056106;28;20036;-77
2022/03/20 04:42:46;;;;;;;13.27;4.35;;;;;;;17.08;33.75;102589.94;5038117;28;20033;-78
2022/03/20 04:45:13;;;;;;;16.52;5.95;;;;;;;17.10;33.71;102593.22;5038172;28;20032;-77
2022/03/20 04:58:36;;;;;;;12.65;4.63;;;;;;;17.00;33.74;102582.38;5056052;28;20120;-76
2022/03/20 05:01:01;;;;;;;12.95;4.10;;;;;;;16.96;33.63;102586.91;5055313;28;20107;-77
2022/03/20 05:03:27;;;;;;;14.40;4.95;;;;;;;16.96;33.75;102588.84;5037699;28;20021;-77
2022/03/20 05:05:53;;;;;;;18.60;4.63;;;;;;;16.95;33.69;102582.53;5055372;28;20103;-77
2022/03/20 05:08:19;;;;;;;15.25;4.75;;;;;;;16.92;33.93;102583.13;5055552;28;20104;-77
2022/03/20 05:13:30;;;;;;;13.15;4.78;;;;;;;16.95;33.69;102581.72;5055534;28;20032;-77
2022/03/20 05:15:56;;;;;;;24.30;4.95;;;;;;;16.83;34.03;102585.00;5055448;28;20471;-77
2022/03/20 05:18:23;;;;;;;22.20;6.13;;;;;;;16.87;34.01;102583.25;5055373;28;20071;-77
2022/03/20 05:20:52;;;;;;;27.33;8.15;;;;;;;16.91;33.85;102587.84;5055301;28;20025;-77
2022/03/20 05:23:21;;;;;;;22.67;7.38;;;;;;;16.99;33.62;102582.69;5055306;28;20033;-77
2022/03/20 05:25:47;;;;;;;22.40;6.55;;;;;;;16.85;34.09;102579.97;5055198;28;20376;-77
2022/03/20 05:28:13;;;;;;;21.40;7.47;;;;;;;16.85;34.21;102591.03;5054940;28;20110;-78
2022/03/20 05:30:40;;;;;;;24.88;6.30;;;;;;;16.86;34.08;102593.50;5052456;28;20483;-77
2022/03/20 05:33:08;;;;;;;30.63;7.10;;;;;;;16.84;34.34;102595.72;5055037;28;20067;-77
2022/03/20 05:35:34;;;;;;;36.35;8.68;;;;;;;16.87;34.26;102589.59;5055115;28;20025;-77
2022/03/20 05:38:00;;;;;;;18.67;5.47;;;;;;;16.91;34.33;102589.78;5055070;28;20082;-77
2022/03/20 05:40:26;;;;;;;30.38;5.13;;;;;;;16.89;34.05;102594.81;5054964;28;20491;-77
2022/03/20 05:42:52;;;;;;;20.73;5.60;;;;;;;16.90;34.00;102610.25;5054902;28;20057;-77
2022/03/20 05:45:18;;;;;;;37.00;8.68;;;;;;;16.85;34.09;102608.44;5054886;28;20059;-77
2022/03/20 05:47:43;;;;;;;18.23;5.97;;;;;;;16.80;34.33;102616.81;5054819;28;20108;-77
2022/03/20 05:50:10;;;;;;;21.75;4.85;;;;;;;16.78;34.05;102608.03;5054789;28;20056;-77
2022/03/20 05:52:36;;;;;;;22.13;5.22;;;;;;;16.64;34.35;102604.44;5054793;28;20024;-77
2022/03/20 05:55:04;;;;;;;19.92;4.90;;;;;;;16.55;34.62;102604.34;5037068;28;20544;-77
2022/03/20 06:00:25;;;;;;;32.50;5.78;;;;;;;16.51;34.50;102611.59;5054916;28;20108;-77
2022/03/20 06:02:51;;;;;;;23.73;6.60;;;;;;;16.51;34.58;102614.38;5054448;28;20048;-77
2022/03/20 06:05:16;;;;;;;20.75;5.07;;;;;;;16.44;34.74;102625.00;5054491;28;20378;-77
2022/03/20 06:07:44;;;;;;;30.95;7.93;;;;;;;16.39;35.11;102625.09;5054534;28;20103;-76
2022/03/20 06:10:11;;;;;;;32.88;8.32;;;;;;;16.36;35.05;102617.44;5054353;28;20060;-77
2022/03/20 06:12:37;;;;;;;26.90;6.18;;;;;;;16.30;35.25;102615.91;5054396;28;20025;-80
2022/03/20 06:15:03;;;;;;;22.58;6.35;;;;;;;16.26;35.42;102603.84;5054334;28;20103;-77
2022/03/20 06:17:29;;;;;;;25.67;6.20;;;;;;;16.17;35.69;102611.19;5054251;28;20033;-77
2022/03/20 06:19:55;;;;;;;27.88;6.65;;;;;;;16.22;35.39;102619.38;5054194;28;20021;-77
2022/03/20 06:22:21;;;;;;;24.50;6.80;;;;;;;16.25;35.62;102627.88;5054205;28;20027;-77
2022/03/20 06:24:47;;;;;;;35.25;9.82;;;;;;;16.23;35.63;102632.03;5053975;28;20100;-77
2022/03/20 06:27:12;;;;;;;23.30;6.93;;;;;;;16.28;35.79;102620.91;5053864;28;20083;-78
2022/03/20 06:29:38;;;;;;;20.75;6.75;;;;;;;16.27;35.97;102613.75;5054095;28;20021;-76
2022/03/20 06:32:04;;;;;;;20.40;5.85;;;;;;;16.30;35.86;102613.13;5053962;28;20028;-77
2022/03/20 06:34:29;;;;;;;29.73;9.30;;;;;;;16.37;35.98;102611.59;5053905;28;20076;-77
2022/03/20 06:36:57;;;;;;;20.17;5.68;;;;;;;16.40;35.82;102626.75;5053862;28;20032;-79
2022/03/20 06:39:24;;;;;;;23.88;6.97;;;;;;;16.43;35.68;102626.13;5053472;28;20468;-82
2022/03/20 06:41:49;;;;;;;19.27;6.43;;;;;;;16.43;35.85;102637.16;5053869;28;20021;-77
2022/03/20 06:44:15;;;;;;;22.60;5.57;;;;;;;16.43;35.89;102630.81;5053669;28;20033;-77
2022/03/20 06:46:42;;;;;;;18.25;6.25;;;;;;;16.46;35.55;102614.47;5053739;28;20087;-77
2022/03/20 06:49:09;;;;;;;28.48;7.45;;;;;;;16.50;35.89;102615.50;5053667;28;20098;-77
2022/03/20 06:51:35;;;;;;;19.60;5.90;;;;;;;16.50;35.57;102625.72;5053594;28;20028;-77
2022/03/20 06:54:00;;;;;;;17.80;4.60;;;;;;;16.54;35.59;102626.72;5053550;28;20013;-80
2022/03/20 06:56:28;;;;;;;25.63;6.45;;;;;;;16.54;35.35;102629.47;5053500;28;20078;-77
2022/03/20 06:58:55;;;;;;;15.05;5.80;;;;;;;16.58;35.53;102614.78;5053491;28;20060;-77
2022/03/20 07:01:21;;;;;;;23.83;5.70;;;;;;;16.56;35.36;102606.00;5053403;28;20043;-77
2022/03/20 07:03:47;;;;;;;16.48;5.60;;;;;;;16.58;35.64;102608.44;5053316;28;20028;-78
2022/03/20 07:06:12;;;;;;;16.58;4.30;;;;;;;16.67;35.50;102605.75;5053297;28;20021;-77
2022/03/20 07:08:38;;;;;;;13.57;5.38;;;;;;;16.80;35.22;102613.25;5053288;28;20027;-77
2022/03/20 07:11:03;;;;;;;20.60;5.97;;;;;;;16.77;35.21;102608.31;5053204;28;20078;-78
2022/03/20 07:16:16;;;;;;;22.30;4.90;;;;;;;16.77;35.29;102611.91;5053239;28;20036;-77
2022/03/20 07:18:42;;;;;;;16.35;5.85;;;;;;;16.89;35.09;102603.91;5053160;28;20455;-81
2022/03/20 07:21:11;;;;;;;14.68;5.13;;;;;;;16.97;34.97;102596.81;5053048;28;20029;-78
2022/03/20 07:23:37;;;;;;;17.85;5.15;;;;;;;17.01;35.09;102608.09;5052962;28;20029;-77
2022/03/20 07:31:31;;;;;;;13.90;4.75;;;;;;;17.15;34.64;102595.88;5052998;28;20135;-77
2022/03/20 07:33:57;;;;;;;18.20;4.97;;;;;;;17.21;34.65;102585.47;5034995;28;20504;-77
2022/03/20 07:36:22;;;;;;;23.85;6.72;;;;;;;17.28;34.37;102593.34;5052789;28;20021;-77
2022/03/20 07:38:50;;;;;;;17.60;5.00;;;;;;;17.40;34.44;102599.13;5052820;28;20051;-77
2022/03/20 07:41:16;;;;;;;17.95;4.78;;;;;;;17.49;34.28;102594.47;5052763;28;20033;-77
2022/03/20 07:43:42;;;;;;;24.42;7.80;;;;;;;17.50;34.39;102598.03;5052650;28;20035;-77
2022/03/20 07:46:08;;;;;;;30.02;7.53;;;;;;;17.36;34.61;102598.09;5052709;28;20029;-77
2022/03/20 07:48:34;;;;;;;29.75;8.40;;;;;;;17.46;34.85;102592.34;5052523;28;20021;-78
2022/03/20 07:51:00;;;;;;;31.38;6.20;;;;;;;17.52;34.85;102595.78;5051870;28;20033;-77
2022/03/20 07:53:26;;;;;;;48.00;10.85;;;;;;;17.60;34.74;102595.81;5052636;28;20453;-77
2022/03/20 07:55:52;;;;;;;23.92;6.53;;;;;;;17.74;34.52;102593.84;5052604;28;20021;-77
2022/03/20 07:58:20;;;;;;;28.10;7.40;;;;;;;17.90;34.25;102591.47;5052547;28;20048;-77
2022/03/20 08:00:46;;;;;;;32.92;6.78;;;;;;;17.91;34.13;102593.13;5034692;28;20128;-77
2022/03/20 08:03:12;;;;;;;29.85;6.30;;;;;;;18.05;34.21;102598.53;5034217;28;20036;-78
2022/03/20 08:05:38;;;;;;;32.42;8.02;;;;;;;17.96;34.32;102592.97;5052446;28;20025;-77
2022/03/20 08:08:04;;;;;;;33.22;8.00;;;;;;;18.01;34.44;102590.06;5052469;28;20021;-78
2022/03/20 08:10:30;;;;;;;38.40;7.75;;;;;;;18.06;34.55;102583.59;5052238;28;20387;-77
2022/03/20 08:12:57;;;;;;;37.90;11.32;;;;;;;18.16;34.52;102593.56;5034553;28;20079;-77
2022/03/20 08:15:23;;;;;;;32.10;7.53;;;;;;;18.27;34.28;102592.94;5052369;28;20407;-78
2022/03/20 08:17:50;;;;;;;95.72;19.92;;;;;;;18.19;34.63;102601.19;5052343;28;20056;-82
2022/03/20 08:20:16;;;;;;;18.30;5.57;;;;;;;18.01;35.01;102597.56;5052332;28;20071;-77
2022/03/20 08:22:42;;;;;;;12.30;4.88;;;;;;;18.28;34.40;102591.78;5052315;28;20059;-78
2022/03/20 08:25:10;;;;;;;14.85;5.38;;;;;;;18.21;34.59;102587.84;5052255;28;20031;-77
2022/03/20 08:27:50;;;;;;;27.88;5.60;;;;;;;18.23;34.26;102589.19;5052062;28;20049;-77
2022/03/20 08:30:17;;;;;;;23.33;6.55;;;;;;;18.37;34.18;102593.78;5052324;28;20090;-77
2022/03/20 08:32:47;;;;;;;35.88;7.63;;;;;;;18.46;34.05;102597.41;5052230;28;20096;-77
2022/03/20 08:35:14;;;;;;;12.30;4.93;;;;;;;18.34;34.18;102599.94;5052261;28;20029;-78
2022/03/20 08:37:44;;;;;;;18.00;5.28;;;;;;;18.32;34.34;102596.69;5052135;28;20025;-77
2022/03/20 08:40:15;;;;;;;23.05;5.35;;;;;;;18.46;33.74;102600.97;5052222;28;20088;-78
2022/03/20 08:42:44;;;;;;;17.63;4.72;;;;;;;18.53;33.36;102590.25;5052119;28;20483;-77
2022/03/20 08:45:11;;;;;;;18.83;6.95;;;;;;;18.51;33.36;102594.47;5052174;28;20036;-78
2022/03/20 08:47:38;;;;;;;19.75;5.80;;;;;;;18.47;33.72;102599.03;5052050;28;20029;-78
2022/03/20 08:50:04;;;;;;;17.23;5.45;;;;;;;18.37;33.78;102596.56;5052174;28;20025;-82
2022/03/20 08:52:30;;;;;;;22.85;7.07;;;;;;;18.19;34.01;102590.13;5052194;28;20443;-77
2022/03/20 08:54:56;;;;;;;15.10;4.95;;;;;;;18.58;33.29;102583.72;5034134;28;20395;-77
2022/03/20 08:57:25;;;;;;;15.15;5.32;;;;;;;18.66;33.13;102580.19;5052010;28;20545;-78
2022/03/20 08:59:52;;;;;;;20.33;5.33;;;;;;;18.61;33.25;102576.75;5051992;28;20108;-77
2022/03/20 09:02:17;;;;;;;17.13;5.75;;;;;;;18.52;33.51;102591.41;5054986;28;20033;-81
2022/03/20 09:04:43;;;;;;;23.27;6.43;;;;;;;18.71;33.36;102588.34;5055533;28;20044;-78
2022/03/20 09:07:09;;;;;;;21.17;6.38;;;;;;;18.72;33.67;102584.44;5055960;28;20032;-78
2022/03/20 09:09:35;;;;;;;28.52;8.30;;;;;;;18.89;33.49;102582.81;5055629;28;20117;-78
2022/03/20 09:12:01;;;;;;;15.55;4.90;;;;;;;19.09;32.99;102587.72;5055558;28;20051;-78
2022/03/20 09:14:27;;;;;;;16.15;6.07;;;;;;;18.96;32.79;102583.16;5055485;28;20037;-78
2022/03/20 09:19:37;;;;;;;27.55;6.25;;;;;;;19.06;32.02;102585.63;5055611;28;20040;-77
2022/03/20 09:22:06;;;;;;;15.65;5.55;;;;;;;18.82;32.28;102583.34;5055297;28;20021;-78
2022/03/20 09:24:32;;;;;;;13.43;4.82;;;;;;;19.09;32.26;102585.75;5055173;28;20505;-78
2022/03/20 09:27:00;;;;;;;17.20;5.22;;;;;;;18.76;32.16;102585.44;5055076;28;20025;-82
2022/03/20 09:29:26;;;;;;;21.83;6.55;;;;;;;18.68;32.10;102585.44;5037342;28;20033;-77
2022/03/20 09:31:52;;;;;;;18.85;5.55;;;;;;;18.84;31.78;102579.09;5055129;28;20025;-77
2022/03/20 09:34:18;;;;;;;18.73;5.35;;;;;;;18.92;31.14;102583.00;5055097;28;20029;-77
2022/03/20 09:36:44;;;;;;;14.75;5.57;;;;;;;18.94;31.16;102580.72;5055033;28;20029;-78
2022/03/20 09:39:10;;;;;;;31.80;7.75;;;;;;;19.14;31.19;102579.25;5055078;28;20056;-78
2022/03/20 09:41:43;;;;;;;17.70;5.30;;;;;;;19.03;31.23;102589.03;5055005;28;20071;-77
2022/03/20 09:44:10;;;;;;;17.40;5.65;;;;;;;19.11;31.21;102588.19;5054735;28;20166;-77
2022/03/20 09:46:36;;;;;;;10.52;4.53;;;;;;;18.81;31.50;102579.72;5054903;28;20505;-78
2022/03/20 09:49:06;;;;;;;16.83;5.18;;;;;;;18.78;31.23;102577.59;5054815;28;20021;-78
2022/03/20 09:51:32;;;;;;;21.80;5.93;;;;;;;19.32;30.78;102563.41;5054807;28;20055;-77
2022/03/20 09:53:58;;;;;;;26.58;6.85;;;;;;;19.27;30.98;102571.88;5054783;28;20025;-77
2022/03/20 09:56:24;;;;;;;18.95;6.70;;;;;;;19.04;30.77;102569.31;5054750;28;20095;-79
2022/03/20 09:58:49;;;;;;;18.45;5.15;;;;;;;19.16;30.82;102554.78;5054660;28;20040;-81
2022/03/20 10:01:16;;;;;;;18.98;6.53;;;;;;;19.23;30.55;102566.19;5054598;28;20033;-78
2022/03/20 10:03:41;;;;;;;18.30;5.30;;;;;;;19.18;31.01;102560.81;5054566;28;20055;-77
2022/03/20 10:06:17;;;;;;;19.30;6.20;;;;;;;19.15;30.91;102552.34;5054485;28;20024;-78
2022/03/20 10:08:55;;;;;;;15.10;5.63;;;;;;;19.06;30.97;102549.59;5054523;28;20121;-77
2022/03/20 10:11:21;;;;;;;23.33;6.57;;;;;;;19.17;30.96;102544.53;5054419;28;20029;-81
2022/03/20 10:14:09;;;;;;;18.13;5.78;;;;;;;19.01;31.81;102541.44;5053436;28;20476;-77
2022/03/20 10:16:36;;;;;;;15.65;5.07;;;;;;;18.59;32.37;102541.09;5054705;28;20106;-78
2022/03/20 10:19:02;;;;;;;16.33;5.32;;;;;;;18.98;31.88;102537.38;5054256;28;20028;-81
2022/03/20 10:21:45;;;;;;;20.02;5.70;;;;;;;18.94;32.16;102535.56;5054257;28;20064;-77
2022/03/20 10:24:30;;;;;;;12.93;6.15;;;;;;;19.25;31.54;102533.41;5054151;28;20119;-78
2022/03/20 10:26:59;;;;;;;19.00;5.88;;;;;;;19.14;31.57;102537.69;5054113;28;20036;-77
2022/03/20 10:29:26;;;;;;;17.67;7.07;;;;;;;19.30;31.52;102533.25;5054099;28;20036;-78
2022/03/20 10:31:55;;;;;;;17.08;6.45;;;;;;;19.30;31.40;102544.34;5054188;28;20025;-78
2022/03/20 10:34:23;;;;;;;15.57;6.18;;;;;;;19.44;31.47;102532.25;5054019;28;20064;-77
2022/03/20 10:36:50;;;;;;;19.25;7.20;;;;;;;19.26;32.00;102532.28;5054051;28;20084;-78
2022/03/20 10:39:19;;;;;;;17.90;5.97;;;;;;;19.47;31.79;102535.16;5053984;28;20459;-78
2022/03/20 10:41:47;;;;;;;15.25;6.20;;;;;;;19.56;31.81;102537.91;5053917;28;20548;-82
2022/03/20 10:44:18;;;;;;;15.57;6.07;;;;;;;19.04;32.46;102526.94;5053845;28;20029;-77
2022/03/20 10:46:58;;;;;;;26.30;7.30;;;;;;;19.25;32.66;102530.66;5053820;28;20081;-78
2022/03/20 10:49:24;;;;;;;;;;;;;;;19.09;33.05;102515.69;5054232;28;20511;-78
2022/03/20 10:52:11;;;;;;;22.65;7.38;;;;;;;19.26;32.90;102526.72;5053632;28;20407;-78
2022/03/20 10:54:39;;;;;;;26.73;7.57;;;;;;;19.44;32.84;102516.44;5053473;28;20025;-78
2022/03/20 10:57:08;;;;;;;19.27;7.35;;;;;;;19.61;32.45;102516.41;5053531;28;20467;-77
2022/03/20 10:59:34;;;;;;;28.03;8.83;;;;;;;19.73;32.56;102512.16;5053557;28;20117;-77
2022/03/20 11:02:08;;;;;;;25.83;8.32;;;;;;;19.66;32.79;102507.09;5053552;28;20025;-77
2022/03/20 11:04:35;;;;;;;33.80;8.73;;;;;;;20.01;32.49;102515.25;5053416;28;20033;-78
2022/03/20 11:07:06;;;;;;;23.67;9.05;;;;;;;19.88;32.90;102520.72;5053199;28;20033;-81
2022/03/20 11:09:32;;;;;;;27.20;8.15;;;;;;;19.60;33.37;102512.00;5053294;28;20059;-79
2022/03/20 11:11:59;;;;;;;21.13;6.50;;;;;;;19.39;32.88;102511.88;5035408;28;20029;-77
2022/03/20 11:14:27;;;;;;;19.98;7.00;;;;;;;19.73;32.07;102512.94;5035328;28;20033;-77
2022/03/20 11:17:05;;;;;;;21.08;6.22;;;;;;;19.51;32.21;102508.44;5053257;28;20021;-77
2022/03/20 11:19:34;;;;;;;22.75;6.95;;;;;;;19.65;32.13;102506.28;5053177;28;20029;-77
2022/03/20 11:22:05;;;;;;;14.88;5.88;;;;;;;19.93;31.89;102506.63;5053114;28;20029;-77
2022/03/20 11:24:32;;;;;;;15.90;5.95;;;;;;;19.67;32.28;102504.00;5035012;28;20032;-79
2022/03/20 11:27:01;;;;;;;31.90;8.45;;;;;;;19.68;32.34;102493.72;5052759;28;20028;-78
2022/03/20 11:29:31;;;;;;;24.13;8.03;;;;;;;19.54;32.29;102504.97;5053076;28;20029;-78
2022/03/20 11:32:01;;;;;;;25.42;5.88;;;;;;;19.92;31.57;102505.00;5052983;28;20032;-77
2022/03/20 11:34:27;;;;;;;;;;;;;;;19.72;32.13;102502.16;5053683;28;20108;-77
2022/03/20 11:37:03;;;;;;;17.35;6.70;;;;;;;19.87;31.73;102512.69;5034937;28;20282;-78
2022/03/20 11:39:29;;;;;;;20.40;8.95;;;;;;;19.87;31.82;102498.84;5034946;28;20029;-78
2022/03/20 11:42:21;;;;;;;17.17;6.82;;;;;;;19.74;31.86;102502.66;5052725;28;20537;-79
2022/03/20 11:45:08;;;;;;;23.77;7.55;;;;;;;19.90;31.81;102501.78;5052679;28;20033;-77
2022/03/20 11:47:38;;;;;;;24.58;8.57;;;;;;;19.83;31.82;102500.66;5052684;28;20029;-78
2022/03/20 11:50:08;;;;;;;22.10;7.63;;;;;;;20.06;31.88;102493.69;5052672;28;20032;-78
2022/03/20 11:53:06;;;;;;;25.38;8.23;;;;;;;19.76;31.65;102492.88;5052755;28;20079;-78
2022/03/20 11:55:56;;;;;;;20.05;6.93;;;;;;;20.08;31.09;102485.84;5029575;28;20429;-82
2022/03/20 11:58:24;;;;;;;21.15;7.43;;;;;;;20.08;31.12;102490.56;5052569;28;20074;-82